Time;durP1;ratioP1;P1;durP2;ratioP2;P2;SDS_P1;SDS_P2;PMS_P1;PMS_P2;Temp;Humidity;BMP_temperature;BMP_pressure;BME280_temperature;BME280_humidity;BME280_pressure;Samples;Min_cycle;Max_cycle;Signal;HPM_P1;HPM_P2
2021/07/12 00:01:10;;;;;;;53.20;50.33;;;;;;;18.64;69.72;93458.25;5112505;28;20431;-52
2021/07/12 00:03:36;;;;;;;48.58;45.88;;;;;;;18.56;70.03;93460.50;5111263;27;20077;-54
2021/07/12 00:06:01;;;;;;;51.47;48.83;;;;;;;18.55;70.33;93464.66;5112097;28;20084;-53
2021/07/12 00:08:27;;;;;;;51.95;49.13;;;;;;;18.42;70.83;93461.63;5112958;28;20046;-54
2021/07/12 00:10:52;;;;;;;51.10;48.05;;;;;;;18.46;70.39;93464.72;5112416;28;20093;-58
2021/07/12 00:13:18;;;;;;;55.22;52.20;;;;;;;18.21;72.34;93453.25;5112486;28;20034;-57
2021/07/12 00:15:43;;;;;;;54.50;51.50;;;;;;;18.24;71.52;93440.88;5112322;28;20114;-56
2021/07/12 00:18:09;;;;;;;55.83;52.90;;;;;;;18.39;71.01;93460.75;5112265;27;20019;-57
2021/07/12 00:20:34;;;;;;;54.83;52.00;;;;;;;18.11;71.93;93465.22;5112239;28;20110;-57
2021/07/12 00:22:59;;;;;;;57.28;54.42;;;;;;;18.19;72.27;93465.03;5112201;28;20028;-56
2021/07/12 00:25:26;;;;;;;55.40;52.17;;;;;;;18.10;72.28;93460.94;5112536;28;20024;-57
2021/07/12 00:27:52;;;;;;;48.83;46.25;;;;;;;18.19;70.89;93451.06;5109798;28;20023;-55
2021/07/12 00:30:20;;;;;;;47.97;45.33;;;;;;;18.30;71.53;93458.75;5091750;28;20131;-52
2021/07/12 00:32:46;;;;;;;41.47;39.33;;;;;;;18.16;70.82;93452.25;5091401;28;20020;-53
2021/07/12 00:35:12;;;;;;;48.33;45.67;;;;;;;18.02;71.56;93457.63;5091625;28;20024;-54
2021/07/12 00:37:38;;;;;;;45.47;43.10;;;;;;;18.06;71.49;93446.00;5091377;28;20103;-53
2021/07/12 00:40:06;;;;;;;43.95;41.63;;;;;;;18.10;71.41;93452.56;5090986;28;20020;-54
2021/07/12 00:42:32;;;;;;;42.70;40.03;;;;;;;18.07;71.20;93451.00;5091094;28;20741;-53
2021/07/12 00:44:57;;;;;;;41.65;38.88;;;;;;;18.02;70.35;93446.47;5091536;28;20035;-53
2021/07/12 00:47:23;;;;;;;38.85;36.90;;;;;;;18.07;69.79;93450.25;5090125;28;20035;-49
2021/07/12 00:49:48;;;;;;;38.25;36.15;;;;;;;17.88;69.00;93450.38;5090173;28;20028;-50
2021/07/12 00:52:14;;;;;;;38.80;36.63;;;;;;;17.59;70.38;93455.38;5090197;28;20032;-49
2021/07/12 00:54:39;;;;;;;45.30;41.95;;;;;;;17.60;70.70;93448.47;5092894;28;20106;-49
2021/07/12 00:57:06;;;;;;;48.58;45.97;;;;;;;17.50;71.94;93451.28;5097700;28;20036;-55
2021/07/12 00:59:32;;;;;;;43.13;40.40;;;;;;;17.51;70.81;93444.38;5099964;28;20024;-54
2021/07/12 01:01:57;;;;;;;47.13;44.80;;;;;;;17.59;71.50;93447.72;5100699;28;20027;-56
2021/07/12 01:04:23;;;;;;;41.47;39.22;;;;;;;17.52;71.27;93451.44;5109776;28;20024;-55
2021/07/12 01:06:48;;;;;;;41.95;39.35;;;;;;;17.58;71.31;93456.69;5111045;28;20027;-53
2021/07/12 01:09:14;;;;;;;41.45;39.35;;;;;;;17.57;71.43;93461.56;5111231;28;20032;-55
2021/07/12 01:11:44;;;;;;;33.78;31.85;;;;;;;17.65;70.24;93461.38;5111250;28;20020;-53
2021/07/12 01:14:19;;;;;;;33.67;31.55;;;;;;;17.61;70.10;93461.09;5111401;28;20023;-55
2021/07/12 01:17:06;;;;;;;38.28;34.92;;;;;;;17.53;70.27;93466.13;5111058;28;20023;-55
2021/07/12 01:19:53;;;;;;;40.80;37.08;;;;;;;17.36;71.06;93467.06;5106311;28;20505;-56
2021/07/12 01:22:33;;;;;;;40.22;37.75;;;;;;;17.23;71.95;93465.47;5090962;28;20027;-56
2021/07/12 01:25:18;;;;;;;40.28;37.47;;;;;;;17.29;72.49;93459.56;5099946;28;20424;-55
2021/07/12 01:28:14;;;;;;;33.55;30.98;;;;;;;17.09;72.34;93463.75;5110089;28;20054;-54
2021/07/12 01:31:05;;;;;;;31.00;28.30;;;;;;;17.22;71.93;93464.00;5089490;28;20043;-57
2021/07/12 01:33:47;;;;;;;26.92;25.30;;;;;;;17.18;72.07;93462.97;5090610;28;20420;-57
2021/07/12 01:36:21;;;;;;;29.02;27.35;;;;;;;17.16;72.19;93462.84;5107332;28;20043;-57
2021/07/12 01:38:58;;;;;;;27.80;26.20;;;;;;;17.13;72.37;93461.25;5101422;28;20094;-58
2021/07/12 01:41:42;;;;;;;32.88;30.77;;;;;;;17.19;72.49;93470.78;5102014;28;20401;-58
2021/07/12 01:44:27;;;;;;;33.15;30.80;;;;;;;17.12;73.15;93474.47;5100823;28;20527;-57
2021/07/12 01:46:59;;;;;;;43.60;29.23;;;;;;;17.06;73.34;93470.50;5100438;28;20046;-57
2021/07/12 01:49:41;;;;;;;32.83;29.85;;;;;;;17.07;73.57;93466.38;5098636;28;20024;-57
2021/07/12 01:52:11;;;;;;;44.40;36.17;;;;;;;16.99;74.81;93465.81;5095879;28;20036;-58
2021/07/12 01:55:01;;;;;;;44.00;34.30;;;;;;;17.10;74.31;93462.44;5090352;28;20027;-57
2021/07/12 01:57:30;;;;;;;38.75;26.05;;;;;;;17.13;73.30;93470.34;5105396;28;20042;-57
2021/07/12 02:00:06;;;;;;;40.17;29.38;;;;;;;17.17;72.78;93469.91;5109469;28;20035;-57
2021/07/12 02:02:32;;;;;;;33.65;25.90;;;;;;;17.10;72.88;93463.16;5110536;28;20024;-50
2021/07/12 02:05:02;;;;;;;29.58;26.55;;;;;;;17.12;72.75;93474.47;5110664;28;20106;-53
2021/07/12 02:07:30;;;;;;;28.15;26.25;;;;;;;17.12;72.45;93465.34;5110319;28;20050;-51
2021/07/12 02:09:56;;;;;;;27.40;25.85;;;;;;;17.10;72.94;93462.44;5109397;28;20030;-50
2021/07/12 02:12:22;;;;;;;25.92;23.77;;;;;;;17.12;72.11;93462.56;5109232;28;20458;-53
2021/07/12 02:14:48;;;;;;;22.85;20.92;;;;;;;17.09;71.74;93464.47;5103283;28;20032;-53
2021/07/12 02:17:16;;;;;;;27.88;20.40;;;;;;;17.05;71.46;93460.66;5088400;28;20027;-54
2021/07/12 02:19:42;;;;;;;26.35;24.27;;;;;;;16.67;72.40;93439.19;5094142;28;20016;-56
2021/07/12 02:22:08;;;;;;;36.40;26.65;;;;;;;16.72;73.16;93459.72;5106503;28;20427;-56
2021/07/12 02:24:34;;;;;;;32.58;24.67;;;;;;;16.70;72.93;93457.50;5106097;28;20091;-55
2021/07/12 02:27:00;;;;;;;32.80;27.73;;;;;;;16.65;73.91;93466.91;5089437;28;20489;-55
2021/07/12 02:29:26;;;;;;;27.60;25.70;;;;;;;16.79;73.39;93465.13;5089349;28;20028;-55
2021/07/12 02:31:52;;;;;;;30.77;27.95;;;;;;;16.84;73.36;93466.16;5089684;28;20054;-49
2021/07/12 02:34:19;;;;;;;28.25;26.45;;;;;;;16.77;73.69;93467.78;5088635;28;20039;-49
2021/07/12 02:36:47;;;;;;;28.20;26.42;;;;;;;16.83;73.11;93464.69;5089362;28;20024;-51
2021/07/12 02:39:13;;;;;;;24.50;23.03;;;;;;;16.72;73.29;93449.28;5087947;28;20516;-49
2021/07/12 02:41:40;;;;;;;25.45;23.48;;;;;;;16.64;74.09;93455.03;5087989;28;20072;-51
2021/07/12 02:44:08;;;;;;;22.90;21.25;;;;;;;16.88;72.70;93461.59;5088450;28;20020;-53
2021/07/12 02:46:33;;;;;;;23.10;21.50;;;;;;;16.86;73.19;93458.66;5088463;28;20051;-53
2021/07/12 02:49:00;;;;;;;23.15;21.55;;;;;;;16.81;72.68;93468.06;5088408;28;21025;-52
2021/07/12 02:51:36;;;;;;;23.15;21.17;;;;;;;16.68;72.30;93438.59;5089595;28;20107;-53
2021/07/12 02:54:05;;;;;;;22.67;19.20;;;;;;;16.86;71.60;93455.13;5093159;28;20027;-51
2021/07/12 02:56:31;;;;;;;23.65;21.55;;;;;;;16.66;72.38;93457.22;5092078;28;20103;-52
2021/07/12 02:58:58;;;;;;;21.95;19.50;;;;;;;16.77;71.69;93455.88;5093641;28;20035;-50
2021/07/12 03:01:23;;;;;;;29.67;19.60;;;;;;;16.64;71.54;93459.88;5093205;28;20027;-50
2021/07/12 03:03:49;;;;;;;27.73;21.80;;;;;;;16.52;73.14;93461.78;5093518;28;20016;-48
2021/07/12 03:06:16;;;;;;;26.83;24.05;;;;;;;16.28;74.25;93452.38;5093131;28;20081;-50
2021/07/12 03:09:06;;;;;;;31.92;22.35;;;;;;;16.47;73.44;93460.00;5092253;28;20078;-49
2021/07/12 03:11:44;;;;;;;31.05;22.77;;;;;;;16.59;73.34;93458.09;5093052;28;20074;-49
2021/07/12 03:14:18;;;;;;;37.67;20.83;;;;;;;16.59;73.56;93452.53;5091948;28;20020;-49
2021/07/12 03:16:44;;;;;;;34.85;21.98;;;;;;;16.45;74.18;93443.88;5095014;28;20104;-52
2021/07/12 03:19:13;;;;;;;31.27;25.73;;;;;;;16.54;74.39;93461.94;5109358;28;20034;-53
2021/07/12 03:21:44;;;;;;;34.28;26.48;;;;;;;16.54;74.70;93464.72;5091750;28;20481;-50
2021/07/12 03:24:10;;;;;;;31.27;26.02;;;;;;;16.56;74.37;93465.59;5094339;28;20024;-54
2021/07/12 03:26:41;;;;;;;33.10;24.52;;;;;;;16.57;74.31;93474.69;5111795;28;20480;-53
2021/07/12 03:29:06;;;;;;;34.58;31.98;;;;;;;16.64;75.23;93465.44;5113489;28;20019;-55
2021/07/12 03:31:33;;;;;;;24.20;21.50;;;;;;;16.55;74.56;93452.97;5112206;28;20059;-50
2021/07/12 03:33:59;;;;;;;30.88;21.45;;;;;;;16.64;73.70;93466.19;5112174;28;20020;-50
2021/07/12 04:11:33;;;;;;;69.63;66.45;;;;;;;17.65;69.97;93462.09;5106391;27;20628;-52
2021/07/12 04:13:59;;;;;;;41.38;39.33;;;;;;;17.58;70.28;93467.88;5102109;28;20036;-49
2021/07/12 04:16:25;;;;;;;32.53;30.52;;;;;;;17.38;70.80;93470.72;5106786;28;20042;-49
2021/07/12 04:18:50;;;;;;;27.73;26.10;;;;;;;17.13;72.09;93461.25;5106873;28;20028;-48
2021/07/12 04:21:16;;;;;;;25.70;23.85;;;;;;;17.13;71.89;93461.25;5106757;28;20019;-48
2021/07/12 04:23:41;;;;;;;25.73;23.70;;;;;;;16.98;72.64;93461.59;5106456;28;20035;-51
2021/07/12 04:26:07;;;;;;;24.02;21.92;;;;;;;16.99;73.05;93468.63;5106710;28;20019;-48
2021/07/12 04:28:32;;;;;;;23.33;21.13;;;;;;;16.97;72.74;93465.69;5106489;28;20507;-48
2021/07/12 04:30:58;;;;;;;23.35;21.88;;;;;;;16.99;73.46;93465.81;5106381;28;20020;-52
2021/07/12 04:33:23;;;;;;;25.38;23.38;;;;;;;16.74;74.41;93445.94;5106553;28;20023;-50
2021/07/12 04:35:50;;;;;;;24.50;22.90;;;;;;;16.88;75.01;93469.22;5106618;28;20048;-50
2021/07/12 04:38:16;;;;;;;26.75;25.08;;;;;;;17.00;74.40;93467.31;5106044;28;20527;-53
2021/07/12 04:40:41;;;;;;;27.15;25.35;;;;;;;17.02;74.63;93467.44;5090597;28;20428;-55
2021/07/12 04:43:07;;;;;;;27.45;25.95;;;;;;;17.06;75.28;93470.50;5086048;28;20028;-50
2021/07/12 04:45:33;;;;;;;28.10;26.40;;;;;;;17.06;75.76;93471.25;5092332;28;20016;-54
2021/07/12 04:47:58;;;;;;;29.30;27.50;;;;;;;17.08;75.63;93473.44;5104495;28;20120;-51
2021/07/12 04:50:24;;;;;;;29.25;27.45;;;;;;;17.16;75.58;93469.16;5092409;28;20022;-49
2021/07/12 04:52:49;;;;;;;31.13;29.25;;;;;;;17.26;75.70;93472.66;5092735;28;20500;-52
2021/07/12 04:55:15;;;;;;;31.50;29.45;;;;;;;17.31;75.78;93473.66;5092292;28;20093;-51
2021/07/12 04:57:40;;;;;;;32.35;30.60;;;;;;;17.28;75.97;93475.59;5092257;28;20035;-52
2021/07/12 05:00:07;;;;;;;28.48;26.92;;;;;;;17.35;76.21;93468.34;5092248;28;20030;-52
2021/07/12 05:02:33;;;;;;;30.33;28.65;;;;;;;17.40;75.91;93470.84;5092379;28;20055;-51
2021/07/12 05:04:58;;;;;;;30.58;28.92;;;;;;;17.44;76.10;93467.59;5092233;28;20043;-52
2021/07/12 05:07:25;;;;;;;31.25;29.50;;;;;;;17.48;76.12;93473.47;5092020;28;20027;-53
2021/07/12 05:09:53;;;;;;;29.50;27.70;;;;;;;17.52;75.80;93470.97;5092198;28;20070;-51
2021/07/12 05:12:19;;;;;;;37.67;35.35;;;;;;;17.59;76.40;93472.84;5092510;28;20077;-49
2021/07/12 05:14:45;;;;;;;29.30;27.55;;;;;;;17.62;76.30;93468.88;5092004;28;20036;-50
2021/07/12 05:17:12;;;;;;;32.13;30.20;;;;;;;17.65;76.37;93464.19;5107655;28;20028;-50
2021/07/12 05:19:37;;;;;;;31.08;29.25;;;;;;;17.66;76.91;93463.56;5092004;28;20497;-53
2021/07/12 05:22:03;;;;;;;36.15;32.55;;;;;;;17.73;77.05;93457.06;5092280;28;20027;-55
2021/07/12 05:24:28;;;;;;;31.35;29.40;;;;;;;17.74;77.73;93458.53;5092368;28;20494;-55
2021/07/12 05:26:54;;;;;;;36.65;34.45;;;;;;;17.80;77.49;93463.81;5092204;28;20028;-54
2021/07/12 05:29:19;;;;;;;30.65;28.77;;;;;;;17.87;77.43;93463.59;5092228;28;20047;-48
2021/07/12 05:31:46;;;;;;;36.42;34.03;;;;;;;17.86;77.42;93450.97;5091762;28;20106;-49
2021/07/12 05:34:12;;;;;;;37.95;35.72;;;;;;;18.00;78.06;93456.75;5091969;28;20534;-50
2021/07/12 05:36:38;;;;;;;39.60;37.20;;;;;;;18.06;78.36;93457.19;5091640;28;20024;-55
2021/07/12 05:39:04;;;;;;;45.28;42.50;;;;;;;18.12;78.65;93458.31;5089692;28;20109;-55
2021/07/12 05:41:29;;;;;;;48.08;45.25;;;;;;;18.18;78.76;93463.56;5071416;28;20447;-59
2021/07/12 05:43:55;;;;;;;43.80;41.20;;;;;;;18.29;79.00;93460.09;5071648;28;20040;-49
2021/07/12 05:46:20;;;;;;;45.70;42.22;;;;;;;18.32;78.82;93463.78;5084492;28;20672;-51
2021/07/12 05:48:46;;;;;;;49.55;46.60;;;;;;;18.44;79.39;93461.75;5091746;28;20073;-50
2021/07/12 05:51:11;;;;;;;56.40;53.30;;;;;;;18.49;80.27;93457.94;5091302;28;20098;-58
2021/07/12 05:53:37;;;;;;;52.75;49.20;;;;;;;18.59;80.02;93464.16;5091977;28;20027;-55
2021/07/12 05:56:03;;;;;;;53.13;49.85;;;;;;;18.65;79.95;93456.16;5091434;28;20550;-53
2021/07/12 05:58:28;;;;;;;49.88;46.35;;;;;;;18.69;79.60;93456.44;5091045;28;20032;-52
2021/07/12 06:00:55;;;;;;;50.60;47.55;;;;;;;18.74;79.89;93458.16;5090348;28;20032;-52
2021/07/12 06:03:21;;;;;;;60.72;57.08;;;;;;;18.77;80.52;93456.94;5090616;28;20028;-54
2021/07/12 06:05:46;;;;;;;68.75;65.10;;;;;;;18.85;82.07;93461.00;5091166;28;20024;-55
2021/07/12 06:08:12;;;;;;;80.43;76.18;;;;;;;18.92;82.65;93456.50;5090996;28;20081;-53
2021/07/12 06:10:37;;;;;;;95.95;90.38;;;;;;;18.94;81.80;93465.03;5075762;28;20094;-55
2021/07/12 06:13:03;;;;;;;95.47;90.43;;;;;;;19.03;82.10;93469.81;5069711;28;20029;-53
2021/07/12 06:15:28;;;;;;;109.15;103.35;;;;;;;19.13;82.90;93466.91;5070445;28;20512;-50
2021/07/12 06:17:54;;;;;;;117.93;111.68;;;;;;;19.24;83.34;93460.59;5070623;28;20032;-51
2021/07/12 06:20:19;;;;;;;125.53;119.00;;;;;;;19.37;83.39;93462.84;5070611;28;20722;-54
2021/07/12 06:22:46;;;;;;;124.45;118.25;;;;;;;19.51;84.23;93458.84;5070460;28;20033;-52
2021/07/12 06:25:12;;;;;;;102.72;97.60;;;;;;;19.60;82.04;93463.59;5070576;28;20047;-54
2021/07/12 06:27:38;;;;;;;107.50;102.03;;;;;;;19.64;81.61;93466.63;5070555;28;20481;-52
2021/07/12 06:30:05;;;;;;;115.20;109.00;;;;;;;19.66;81.36;93466.75;5070554;28;20028;-57
2021/07/12 06:32:31;;;;;;;106.75;101.32;;;;;;;19.68;81.30;93458.47;5070358;28;20037;-55
2021/07/12 06:34:57;;;;;;;86.63;82.22;;;;;;;19.87;80.71;93459.56;5070358;28;20493;-55
2021/07/12 06:37:22;;;;;;;82.32;78.03;;;;;;;19.98;80.15;93470.78;5070329;28;20017;-55
2021/07/12 06:39:48;;;;;;;71.75;67.40;;;;;;;20.13;78.12;93464.69;5069956;28;20059;-56
2021/07/12 06:42:13;;;;;;;52.20;49.17;;;;;;;20.21;76.73;93461.63;5070215;28;20402;-54
2021/07/12 06:44:39;;;;;;;57.03;53.90;;;;;;;20.25;76.87;93465.41;5070282;28;20463;-54
2021/07/12 06:47:04;;;;;;;72.15;68.35;;;;;;;20.29;77.60;93464.94;5089168;28;20549;-52
2021/07/12 06:49:30;;;;;;;63.88;59.47;;;;;;;20.40;78.14;93462.09;5090153;28;20031;-55
2021/07/12 06:51:55;;;;;;;58.80;54.97;;;;;;;20.56;77.08;93459.47;5090353;28;20031;-56
2021/07/12 06:54:21;;;;;;;55.03;51.72;;;;;;;20.64;77.83;93459.22;5090355;28;20039;-55
2021/07/12 06:56:46;;;;;;;67.53;63.28;;;;;;;20.75;78.56;93461.97;5090172;28;20529;-57
2021/07/12 06:59:11;;;;;;;57.13;53.70;;;;;;;20.80;77.64;93460.13;5089753;28;20039;-55
2021/07/12 07:01:37;;;;;;;46.42;43.80;;;;;;;20.87;75.73;93459.88;5089956;28;20028;-56
2021/07/12 07:04:02;;;;;;;50.58;47.28;;;;;;;21.01;75.92;93457.84;5090127;28;20031;-57
2021/07/12 07:06:28;;;;;;;50.97;47.53;;;;;;;21.20;76.64;93458.88;5089778;28;20548;-58
2021/07/12 07:08:53;;;;;;;36.67;34.00;;;;;;;21.27;74.72;93455.06;5090101;28;20032;-53
2021/07/12 07:11:19;;;;;;;39.75;37.20;;;;;;;21.31;73.99;93460.91;5089396;28;20597;-54
2021/07/12 07:13:44;;;;;;;35.95;33.72;;;;;;;21.45;74.30;93464.44;5090069;28;20023;-57
2021/07/12 07:16:09;;;;;;;42.25;39.65;;;;;;;21.61;72.15;93456.91;5089733;28;20039;-57
2021/07/12 07:18:35;;;;;;;36.92;34.53;;;;;;;21.65;74.94;93455.03;5089576;28;20040;-58
2021/07/12 07:21:01;;;;;;;38.88;36.58;;;;;;;21.75;74.67;93463.25;5089916;28;20028;-58
2021/07/12 07:23:26;;;;;;;51.28;47.85;;;;;;;21.87;70.38;93463.94;5089897;28;20477;-56
2021/07/12 07:25:52;;;;;;;26.63;24.73;;;;;;;22.12;65.61;93455.41;5088365;28;20028;-57
2021/07/12 07:28:18;;;;;;;42.90;40.20;;;;;;;22.30;69.01;93461.97;5089305;28;20024;-58
2021/07/12 07:30:45;;;;;;;39.72;37.33;;;;;;;22.46;69.57;93462.03;5088569;28;20381;-58
2021/07/12 07:33:10;;;;;;;25.83;24.25;;;;;;;22.55;67.44;93456.19;5089617;28;20032;-56
2021/07/12 07:35:36;;;;;;;27.90;26.10;;;;;;;22.96;67.87;93458.19;5089877;28;20020;-58
2021/07/12 07:38:02;;;;;;;22.50;20.42;;;;;;;23.28;65.80;93454.84;5082519;28;20033;-53
2021/07/12 07:40:27;;;;;;;22.23;20.52;;;;;;;23.63;64.02;93457.19;5078770;28;20032;-55
2021/07/12 07:42:53;;;;;;;14.95;13.35;;;;;;;23.95;55.97;93460.75;5087029;28;20034;-56
2021/07/12 07:45:18;;;;;;;14.55;13.55;;;;;;;24.21;51.77;93455.56;5082669;28;20028;-56
2021/07/12 07:47:45;;;;;;;12.57;11.68;;;;;;;24.42;49.48;93461.44;5067077;28;20017;-50
2021/07/12 07:50:11;;;;;;;14.00;12.90;;;;;;;24.71;49.93;93460.56;5067289;28;20539;-47
2021/07/12 07:52:37;;;;;;;13.20;12.10;;;;;;;25.07;51.45;93464.91;5067052;28;20059;-49
2021/07/12 07:55:12;;;;;;;11.45;10.55;;;;;;;25.34;49.95;93464.56;5065492;28;20323;-54
2021/07/12 07:57:39;;;;;;;13.05;11.82;;;;;;;25.68;47.50;93456.00;5066846;28;20121;-52
2021/07/12 08:00:08;;;;;;;10.73;9.88;;;;;;;26.12;48.21;93460.50;5080838;28;20034;-51
2021/07/12 08:02:33;;;;;;;;;;;;;;;26.27;43.47;93459.63;5077574;28;20028;-54
2021/07/12 08:04:59;;;;;;;10.30;9.40;;;;;;;26.57;43.53;93460.72;5066708;28;19935;-51
2021/07/12 08:07:24;;;;;;;18.55;17.30;;;;;;;26.88;41.92;93459.66;5066854;28;20474;-51
2021/07/12 08:09:49;;;;;;;18.95;17.63;;;;;;;27.31;43.75;93458.97;5066323;28;20131;-54
2021/07/12 08:12:15;;;;;;;8.82;8.20;;;;;;;27.54;41.50;93472.50;5066441;28;20032;-54
2021/07/12 08:14:40;;;;;;;8.63;7.80;;;;;;;27.73;39.24;93463.88;5073522;28;20370;-49
2021/07/12 08:17:06;;;;;;;10.27;8.10;;;;;;;28.16;42.85;93456.63;5086607;28;20477;-56
2021/07/12 08:19:31;;;;;;;8.88;7.35;;;;;;;28.54;37.09;93449.91;5087072;28;20032;-56
2021/07/12 08:21:57;;;;;;;9.00;8.27;;;;;;;28.75;35.79;93461.84;5086507;28;20462;-55
2021/07/12 08:24:22;;;;;;;17.38;8.68;;;;;;;29.14;38.31;93452.91;5088588;28;20028;-53
2021/07/12 08:26:47;;;;;;;9.40;7.93;;;;;;;29.06;35.71;93449.88;5090520;28;20027;-54
2021/07/12 08:29:13;;;;;;;6.82;6.32;;;;;;;29.14;37.01;93447.25;5089267;28;20035;-57
2021/07/12 08:31:38;;;;;;;7.90;6.35;;;;;;;29.36;35.53;93450.66;5090569;28;20028;-52
2021/07/12 08:34:04;;;;;;;7.72;7.13;;;;;;;29.53;36.37;93455.34;5090874;28;20031;-56
2021/07/12 08:36:29;;;;;;;7.50;6.75;;;;;;;29.92;33.11;93442.72;5090412;28;20528;-55
2021/07/12 08:38:55;;;;;;;6.80;6.30;;;;;;;30.03;34.72;93438.69;5089031;28;20460;-57
2021/07/12 08:41:21;;;;;;;8.10;7.32;;;;;;;30.53;34.52;93453.28;5070494;28;20024;-54
2021/07/12 08:43:47;;;;;;;15.23;14.05;;;;;;;30.86;31.46;93457.47;5069914;28;20497;-55
2021/07/12 08:46:13;;;;;;;8.57;7.78;;;;;;;30.88;31.68;93455.41;5081648;28;20081;-52
2021/07/12 08:48:38;;;;;;;7.55;6.90;;;;;;;30.92;31.86;93458.31;5090130;28;20489;-55
2021/07/12 08:51:04;;;;;;;8.13;7.35;;;;;;;31.19;32.41;93453.78;5089885;28;20089;-53
2021/07/12 08:53:29;;;;;;;9.77;7.55;;;;;;;31.37;32.82;93460.53;5089890;28;20476;-51
2021/07/12 08:55:55;;;;;;;7.50;6.90;;;;;;;31.48;32.39;93455.03;5088707;28;20375;-51
2021/07/12 08:58:27;;;;;;;6.93;6.32;;;;;;;31.58;30.52;93458.06;5089808;28;20044;-55
2021/07/12 09:01:04;;;;;;;7.70;6.85;;;;;;;31.73;31.20;93454.00;5089800;28;20031;-54
2021/07/12 09:03:34;;;;;;;6.73;5.80;;;;;;;32.04;32.65;93453.78;5089864;28;20036;-56
2021/07/12 09:06:00;;;;;;;8.32;5.95;;;;;;;32.37;31.88;93466.34;5083536;28;20035;-55
2021/07/12 09:08:53;;;;;;;7.70;6.15;;;;;;;31.76;28.60;93461.91;5077502;28;20038;-48
2021/07/12 09:11:26;;;;;;;5.78;5.30;;;;;;;31.72;30.79;93470.41;5082634;28;20061;-54
2021/07/12 09:14:11;;;;;;;7.50;5.88;;;;;;;31.38;31.25;93473.38;5078804;28;20122;-55
2021/07/12 09:16:54;;;;;;;7.10;5.35;;;;;;;31.68;30.12;93469.63;5080095;28;20082;-53
2021/07/12 09:19:28;;;;;;;7.75;6.25;;;;;;;31.84;30.89;93467.00;5077868;28;20020;-56
2021/07/12 09:22:03;;;;;;;8.50;5.57;;;;;;;31.92;30.89;93470.69;5077793;28;20020;-57
2021/07/12 09:24:35;;;;;;;6.32;5.72;;;;;;;31.73;29.30;93474.69;5078820;28;20035;-57
2021/07/12 09:27:03;;;;;;;7.65;6.07;;;;;;;32.06;30.46;93470.94;5078267;28;20032;-54
2021/07/12 09:29:35;;;;;;;6.38;5.82;;;;;;;32.13;29.28;93461.03;5079017;28;20197;-55
2021/07/12 09:32:04;;;;;;;5.88;5.38;;;;;;;32.17;30.03;93466.06;5079667;28;20461;-57
2021/07/12 09:34:30;;;;;;;5.93;5.30;;;;;;;31.86;28.67;93472.75;5079819;28;20029;-56
2021/07/12 09:36:55;;;;;;;5.32;4.93;;;;;;;31.74;29.44;93458.28;5095782;28;20051;-58
2021/07/12 09:39:21;;;;;;;6.05;5.45;;;;;;;31.72;30.06;93470.41;5079940;28;20111;-57
2021/07/12 09:41:52;;;;;;;5.88;5.38;;;;;;;31.69;30.44;93473.91;5081871;28;20025;-59
2021/07/12 09:44:19;;;;;;;6.32;5.78;;;;;;;31.95;31.53;93454.34;5085159;28;20031;-57
2021/07/12 09:46:44;;;;;;;6.13;5.63;;;;;;;32.16;28.34;93456.06;5075285;28;20039;-55
2021/07/12 09:49:12;;;;;;;23.88;15.02;;;;;;;32.34;28.71;93461.28;5071309;28;20509;-57
2021/07/12 09:51:38;;;;;;;6.33;5.83;;;;;;;31.79;27.73;93471.94;5071386;28;20024;-57
2021/07/12 09:54:24;;;;;;;11.73;9.38;;;;;;;31.89;31.50;93474.22;5072663;28;20466;-57
2021/07/12 09:56:52;;;;;;;5.95;5.43;;;;;;;31.94;28.15;93470.00;5091140;28;20493;-58
2021/07/12 09:59:18;;;;;;;5.88;5.38;;;;;;;32.08;27.39;93473.09;5090613;28;20036;-57
2021/07/12 10:01:49;;;;;;;6.75;5.95;;;;;;;32.21;27.91;93471.84;5091194;28;20032;-58
2021/07/12 10:04:15;;;;;;;6.13;5.10;;;;;;;32.38;28.75;93475.66;5091497;28;20636;-57
2021/07/12 10:06:43;;;;;;;5.72;5.15;;;;;;;32.67;26.92;93478.19;5090765;28;20097;-58
2021/07/12 10:09:08;;;;;;;5.72;5.15;;;;;;;32.89;26.30;93477.72;5091119;28;20036;-55
2021/07/12 10:11:34;;;;;;;6.30;5.70;;;;;;;32.96;28.06;93472.78;5091188;28;20023;-57
2021/07/12 10:14:00;;;;;;;5.53;4.97;;;;;;;33.04;26.32;93482.19;5090928;28;20031;-58
2021/07/12 10:16:28;;;;;;;7.03;4.95;;;;;;;33.23;26.11;93483.09;5091092;28;20039;-56
2021/07/12 10:18:54;;;;;;;6.20;5.70;;;;;;;33.33;26.44;93469.59;5091043;28;20067;-57
2021/07/12 10:21:19;;;;;;;5.40;4.93;;;;;;;33.20;25.25;93465.19;5090971;28;20035;-57
2021/07/12 10:23:45;;;;;;;5.63;5.13;;;;;;;33.26;28.67;93473.13;5090594;28;20036;-57
2021/07/12 10:26:10;;;;;;;5.80;4.93;;;;;;;33.54;26.77;93464.81;5106654;28;20128;-58
2021/07/12 10:28:41;;;;;;;5.38;4.88;;;;;;;33.51;25.10;93474.78;5090793;28;20416;-57
2021/07/12 10:31:27;;;;;;;6.43;5.82;;;;;;;33.45;27.60;93472.59;5090771;28;20459;-57
2021/07/12 10:33:52;;;;;;;6.05;5.30;;;;;;;33.34;25.98;93468.19;5090198;28;20035;-56
2021/07/12 10:36:37;;;;;;;6.32;5.72;;;;;;;33.48;26.53;93453.97;5090691;28;20463;-57
2021/07/12 10:39:03;;;;;;;6.25;5.65;;;;;;;33.51;25.20;93451.88;5089165;28;20118;-57
2021/07/12 10:41:29;;;;;;;5.68;5.22;;;;;;;33.79;26.54;93457.84;5090247;28;20504;-57
2021/07/12 10:43:57;;;;;;;5.72;5.25;;;;;;;34.02;26.47;93459.47;5090084;28;20060;-56
2021/07/12 10:46:29;;;;;;;6.28;5.35;;;;;;;33.98;25.66;93455.81;5077421;28;20016;-56
2021/07/12 10:48:57;;;;;;;5.88;5.38;;;;;;;33.89;24.86;93451.47;5079680;28;20032;-57
2021/07/12 10:51:32;;;;;;;5.18;4.68;;;;;;;33.80;27.60;93453.56;5078525;28;20034;-57
2021/07/12 10:54:03;;;;;;;6.53;4.93;;;;;;;33.85;26.42;93457.88;5070024;28;20413;-57
2021/07/12 10:56:50;;;;;;;5.65;5.25;;;;;;;33.80;25.70;93453.56;5069684;28;20055;-57
2021/07/12 10:59:34;;;;;;;6.00;5.30;;;;;;;33.74;26.15;93453.53;5069712;28;20032;-56
2021/07/12 11:02:25;;;;;;;6.43;5.35;;;;;;;33.94;26.02;93455.81;5069645;28;20173;-57
2021/07/12 11:05:20;;;;;;;5.18;4.70;;;;;;;34.18;24.59;93441.63;5066867;28;20125;-55
2021/07/12 11:07:47;;;;;;;5.45;5.05;;;;;;;33.85;25.40;93457.16;5079996;28;20039;-57
2021/07/12 11:10:24;;;;;;;6.10;5.50;;;;;;;33.86;26.36;93453.59;5089461;28;20039;-56
2021/07/12 11:13:01;;;;;;;6.25;5.72;;;;;;;34.00;26.93;93450.09;5088115;28;20019;-56
2021/07/12 11:15:28;;;;;;;5.53;4.95;;;;;;;33.74;24.76;93450.66;5071369;28;20016;-55
2021/07/12 11:17:56;;;;;;;5.60;5.10;;;;;;;33.32;25.84;93453.13;5089501;28;20520;-56
2021/07/12 11:21:01;;;;;;;6.15;5.60;;;;;;;33.15;27.68;93454.41;5089970;28;20043;-57
2021/07/12 11:23:44;;;;;;;5.25;4.75;;;;;;;33.12;26.39;93452.94;5083008;28;20032;-57
2021/07/12 11:26:19;;;;;;;5.40;5.00;;;;;;;33.15;26.18;93457.28;5089550;28;20493;-56
2021/07/12 11:28:46;;;;;;;5.63;5.00;;;;;;;33.27;26.90;93443.06;5089874;28;20020;-57
2021/07/12 11:31:49;;;;;;;5.45;4.95;;;;;;;33.36;26.51;93451.03;5086280;28;20039;-57
2021/07/12 11:34:14;;;;;;;5.85;5.45;;;;;;;33.27;27.11;93451.66;5089552;28;20020;-57
2021/07/12 11:36:50;;;;;;;5.63;5.10;;;;;;;33.51;27.56;93446.16;5089341;28;20166;-57
2021/07/12 11:39:17;;;;;;;5.72;5.10;;;;;;;33.48;25.41;93444.69;5089275;28;20024;-53
2021/07/12 11:41:43;;;;;;;7.47;5.30;;;;;;;33.02;26.16;93441.41;5082929;28;20153;-57
2021/07/12 11:44:10;;;;;;;5.55;5.07;;;;;;;32.72;26.55;93447.50;5078121;28;20120;-58
2021/07/12 11:46:36;;;;;;;6.30;5.00;;;;;;;32.84;27.11;93441.91;5079970;28;20054;-58
2021/07/12 11:49:05;;;;;;;5.43;4.93;;;;;;;32.92;26.89;93436.25;5078765;28;20077;-58
2021/07/12 11:51:31;;;;;;;7.10;5.18;;;;;;;33.06;26.51;93433.59;5069434;28;20037;-56
2021/07/12 11:53:56;;;;;;;5.05;4.65;;;;;;;33.09;25.65;93435.06;5081178;28;20696;-57
2021/07/12 11:56:22;;;;;;;5.75;4.78;;;;;;;32.84;26.48;93424.75;5089598;28;20024;-57
2021/07/12 11:58:57;;;;;;;5.13;4.70;;;;;;;32.78;26.38;93419.69;5090418;28;20016;-57
2021/07/12 12:01:23;;;;;;;4.35;3.95;;;;;;;32.51;25.35;93428.69;5093566;28;20016;-56
2021/07/12 12:04:02;;;;;;;6.60;4.55;;;;;;;32.41;26.69;93422.81;5083541;28;20020;-57